createdAt,value
2022-07-31T00:00:16.019Z,0
2022-07-31T00:05:20.514Z,0
2022-07-31T00:10:25.055Z,0
2022-07-31T00:15:28.634Z,0
2022-07-31T00:20:33.156Z,0
2022-07-31T00:25:37.694Z,0
2022-07-31T00:30:41.266Z,0
2022-07-31T00:35:45.808Z,0
2022-07-31T00:40:50.317Z,0
2022-07-31T00:45:58.906Z,0
2022-07-31T00:50:58.434Z,0
2022-07-31T00:56:02.955Z,0
2022-07-31T01:01:06.535Z,0
2022-07-31T01:06:11.331Z,0
2022-07-31T01:11:15.555Z,0
2022-07-31T01:16:20.282Z,0
2022-07-31T01:21:23.605Z,0
2022-07-31T01:26:28.153Z,0
2022-07-31T01:31:32.701Z,0
2022-07-31T01:36:36.228Z,0
2022-07-31T01:41:40.796Z,0
2022-07-31T01:46:45.336Z,0
2022-07-31T01:51:48.851Z,0
2022-07-31T01:56:53.424Z,0
2022-07-31T02:01:57.954Z,0
2022-07-31T02:07:01.454Z,0
2022-07-31T02:12:09.795Z,0
2022-07-31T02:17:10.563Z,0
2022-07-31T02:22:15.089Z,0
2022-07-31T02:27:55.579Z,0
2022-07-31T02:32:23.184Z,0
2022-07-31T02:37:27.727Z,0
2022-07-31T02:42:31.253Z,0
2022-07-31T02:47:34.783Z,0
2022-07-31T02:52:39.331Z,0
2022-07-31T02:57:44.529Z,0
2022-07-31T03:02:48.501Z,0
2022-07-31T03:07:51.954Z,0
2022-07-31T03:12:56.533Z,0
2022-07-31T03:18:01.064Z,4
2022-07-31T03:23:04.634Z,4
2022-07-31T03:28:09.153Z,8
2022-07-31T03:33:13.741Z,12
2022-07-31T03:38:38.878Z,20
2022-07-31T03:43:21.773Z,40
2022-07-31T03:48:26.289Z,64
2022-07-31T03:53:29.829Z,120
2022-07-31T03:58:34.367Z,184
2022-07-31T04:03:38.885Z,272
2022-07-31T04:08:43.456Z,300
2022-07-31T04:13:46.992Z,384
2022-07-31T04:18:51.526Z,548
2022-07-31T04:23:56.077Z,744
2022-07-31T04:28:59.603Z,1124
2022-07-31T04:34:04.151Z,1588
2022-07-31T04:39:08.670Z,1828
2022-07-31T04:44:12.222Z,1600
2022-07-31T04:49:16.837Z,1328
2022-07-31T04:54:21.320Z,1528
2022-07-31T04:59:59.733Z,1672
2022-07-31T05:04:29.365Z,1740
2022-07-31T05:09:33.936Z,1860
2022-07-31T05:14:38.474Z,2380
2022-07-31T05:19:41.986Z,2020
2022-07-31T05:24:46.559Z,1480
2022-07-31T05:29:51.085Z,1396
2022-07-31T05:34:54.665Z,1608
2022-07-31T05:39:59.151Z,1944
2022-07-31T05:45:03.702Z,2628
2022-07-31T05:50:07.256Z,3108
2022-07-31T05:55:11.796Z,3704
2022-07-31T06:00:16.339Z,4928
2022-07-31T06:05:20.031Z,5916
2022-07-31T06:10:24.396Z,7504
2022-07-31T06:15:32.013Z,7860
2022-07-31T06:20:33.468Z,7684
2022-07-31T06:25:39.104Z,7680
2022-07-31T06:30:41.544Z,9400
2022-07-31T06:35:46.095Z,10628
2022-07-31T06:40:49.615Z,11524
2022-07-31T06:45:54.220Z,11204
2022-07-31T06:56:02.231Z,9592
2022-07-31T07:01:06.872Z,9456
2022-07-31T07:06:10.322Z,10124
2022-07-31T07:11:14.847Z,11520
2022-07-31T07:16:19.419Z,13432
2022-07-31T07:21:22.926Z,13476
2022-07-31T07:26:27.511Z,11720
2022-07-31T07:31:32.006Z,9192
2022-07-31T07:36:35.547Z,8664
2022-07-31T07:41:40.078Z,8844
2022-07-31T07:46:44.640Z,8000
2022-07-31T07:51:59.703Z,7028
2022-07-31T07:56:52.683Z,6732
2022-07-31T08:01:57.249Z,6416
2022-07-31T08:07:01.800Z,5964
2022-07-31T08:12:05.664Z,6584
2022-07-31T08:17:09.855Z,7836
2022-07-31T08:22:14.376Z,8484
2022-07-31T08:27:17.944Z,8848
2022-07-31T08:32:22.501Z,11412
2022-07-31T08:37:51.742Z,15968
2022-07-31T08:42:30.548Z,20672
2022-07-31T08:47:35.084Z,21024
2022-07-31T08:52:39.616Z,25056
2022-07-31T08:57:43.166Z,27552
2022-07-31T09:02:47.700Z,34624
2022-07-31T09:07:52.237Z,34528
2022-07-31T09:12:56.809Z,45504
2022-07-31T09:18:00.340Z,36160
2022-07-31T09:23:04.885Z,28832
2022-07-31T09:28:09.394Z,27456
2022-07-31T09:33:12.992Z,25824
2022-07-31T09:38:17.496Z,51072
2022-07-31T09:43:22.052Z,39904
2022-07-31T09:48:26.886Z,28448
2022-07-31T09:53:30.119Z,24448
2022-07-31T09:58:34.680Z,24736
2022-07-31T10:03:38.214Z,26272
2022-07-31T10:08:42.792Z,28800
2022-07-31T10:13:47.288Z,26400
2022-07-31T10:18:51.827Z,26912
2022-07-31T10:23:55.354Z,27712
2022-07-31T10:28:59.915Z,31168
2022-07-31T10:34:04.471Z,29440
2022-07-31T10:39:08.008Z,25920
2022-07-31T10:44:12.544Z,33888
2022-07-31T10:49:17.131Z,33120
2022-07-31T10:54:20.607Z,34368
2022-07-31T10:59:25.147Z,29440
2022-07-31T11:04:29.693Z,27840
2022-07-31T11:09:33.302Z,27424
2022-07-31T11:14:37.768Z,31712
2022-07-31T11:19:41.704Z,41984
2022-07-31T11:24:45.910Z,41856
2022-07-31T11:29:59.559Z,67328
2022-07-31T11:34:54.039Z,41888
2022-07-31T11:39:58.527Z,41728
2022-07-31T11:45:10.939Z,31616
2022-07-31T11:50:06.604Z,32416
2022-07-31T11:55:11.141Z,25440
2022-07-31T12:00:26.581Z,26816
2022-07-31T12:05:20.219Z,36288
2022-07-31T12:10:23.744Z,35328
2022-07-31T12:15:28.308Z,29440
2022-07-31T12:20:36.286Z,27808
2022-07-31T12:25:36.467Z,30976
2022-07-31T12:30:40.922Z,27808
2022-07-31T12:35:55.228Z,70496
2022-07-31T12:40:48.995Z,53696
2022-07-31T12:45:53.548Z,60096
2022-07-31T12:50:58.068Z,60896
2022-07-31T12:56:01.635Z,51488
2022-07-31T13:01:06.165Z,20704
2022-07-31T13:06:10.688Z,23136
2022-07-31T13:11:15.262Z,43840
2022-07-31T13:16:18.775Z,48736
2022-07-31T13:21:23.353Z,26944
2022-07-31T13:26:27.900Z,58880
2022-07-31T13:31:31.408Z,30272
2022-07-31T13:36:39.400Z,27200
2022-07-31T13:41:40.486Z,54880
2022-07-31T13:46:44.043Z,45600
2022-07-31T13:51:48.627Z,19360
2022-07-31T13:56:53.121Z,26688
2022-07-31T14:02:03.260Z,49600
2022-07-31T14:07:01.317Z,41952
2022-07-31T14:12:06.181Z,36064
2022-07-31T14:17:10.289Z,15928
2022-07-31T14:22:13.893Z,19200
2022-07-31T14:27:18.376Z,20192
2022-07-31T14:32:22.929Z,26592
2022-07-31T14:37:26.475Z,17856
2022-07-31T14:42:31.028Z,16576
2022-07-31T14:47:35.572Z,16416
2022-07-31T14:52:39.102Z,18560
2022-07-31T14:57:43.626Z,16000
2022-07-31T15:02:48.196Z,14044
2022-07-31T15:07:52.182Z,16160
2022-07-31T15:12:56.283Z,13616
2022-07-31T15:18:00.823Z,15016
2022-07-31T15:23:05.341Z,17920
2022-07-31T15:28:08.872Z,20256
2022-07-31T15:33:12.476Z,15200
2022-07-31T15:38:17.148Z,19328
2022-07-31T15:43:21.498Z,10676
2022-07-31T15:48:25.063Z,16096
2022-07-31T15:53:34.097Z,11424
2022-07-31T15:58:34.167Z,9720
2022-07-31T16:03:51.177Z,9956
2022-07-31T16:08:42.250Z,10392
2022-07-31T16:13:46.786Z,10048
2022-07-31T16:18:51.319Z,11124
2022-07-31T16:23:54.832Z,8308
2022-07-31T16:28:59.374Z,7108
2022-07-31T16:34:03.937Z,7452
2022-07-31T16:39:19.911Z,7236
2022-07-31T16:44:11.984Z,8796
2022-07-31T16:49:31.883Z,8644
2022-07-31T16:54:20.102Z,8184
2022-07-31T16:59:24.626Z,8492
2022-07-31T17:04:29.450Z,7160
2022-07-31T17:09:33.729Z,5564
2022-07-31T17:14:37.263Z,4580
2022-07-31T17:19:46.861Z,4812
2022-07-31T17:24:46.305Z,4656
2022-07-31T17:29:49.848Z,4584
2022-07-31T17:34:54.404Z,4416
2022-07-31T17:39:58.920Z,4112
2022-07-31T17:45:02.499Z,3596
2022-07-31T17:50:07.036Z,3816
2022-07-31T17:55:11.559Z,3164
2022-07-31T18:00:15.116Z,3028
2022-07-31T18:05:19.622Z,2740
2022-07-31T18:10:38.795Z,2568
2022-07-31T18:15:34.782Z,2432
2022-07-31T18:20:32.280Z,2120
2022-07-31T18:25:36.776Z,1600
2022-07-31T18:30:41.327Z,1412
2022-07-31T18:35:44.892Z,1308
2022-07-31T18:40:49.410Z,1144
2022-07-31T18:45:53.952Z,952
2022-07-31T18:51:04.545Z,696
2022-07-31T18:56:02.044Z,544
2022-07-31T19:01:06.589Z,420
2022-07-31T19:06:10.103Z,296
2022-07-31T19:11:14.665Z,204
2022-07-31T19:16:19.167Z,140
2022-07-31T19:21:41.724Z,88
2022-07-31T19:26:27.278Z,52
2022-07-31T19:31:31.784Z,36
2022-07-31T19:36:36.351Z,16
2022-07-31T19:41:39.873Z,8
2022-07-31T19:46:43.452Z,4
2022-07-31T19:51:47.990Z,0
2022-07-31T19:56:52.525Z,0
2022-07-31T20:01:57.050Z,0
2022-07-31T20:07:00.620Z,0
2022-07-31T20:12:05.434Z,0
2022-07-31T20:17:09.655Z,0
2022-07-31T20:22:13.243Z,0
2022-07-31T20:27:17.774Z,0
2022-07-31T20:32:22.305Z,0
2022-07-31T20:37:25.853Z,0
2022-07-31T20:42:30.388Z,0
2022-07-31T20:47:34.903Z,0
2022-07-31T20:52:38.427Z,0
2022-07-31T20:57:42.972Z,0
2022-07-31T21:02:47.557Z,0
2022-07-31T21:07:52.052Z,0
2022-07-31T21:12:55.607Z,0
2022-07-31T21:18:00.144Z,0
2022-07-31T21:23:04.692Z,0
2022-07-31T21:28:08.260Z,0
2022-07-31T21:33:12.781Z,0
2022-07-31T21:38:17.329Z,0
2022-07-31T21:43:22.629Z,0
2022-07-31T21:48:25.580Z,0
2022-07-31T21:53:29.902Z,0
2022-07-31T21:58:33.443Z,0
2022-07-31T22:03:38.002Z,0
2022-07-31T22:08:42.566Z,0
2022-07-31T22:13:47.085Z,0
2022-07-31T22:18:50.580Z,0
2022-07-31T22:23:55.152Z,0
2022-07-31T22:28:59.666Z,0
2022-07-31T22:34:03.238Z,0
2022-07-31T22:39:07.773Z,0
2022-07-31T22:44:15.410Z,0
2022-07-31T22:49:15.894Z,0
2022-07-31T22:54:20.375Z,0
2022-07-31T22:59:24.897Z,0
2022-07-31T23:04:28.447Z,0
2022-07-31T23:09:33.010Z,0
2022-07-31T23:14:37.531Z,0
2022-07-31T23:19:42.034Z,0
2022-07-31T23:24:45.617Z,0
2022-07-31T23:29:50.135Z,0
2022-07-31T23:34:54.714Z,0
2022-07-31T23:39:58.192Z,0
2022-07-31T23:45:02.760Z,0
2022-07-31T23:50:07.285Z,0
2022-07-31T23:55:10.849Z,0
